Time;durP1;ratioP1;P1;durP2;ratioP2;P2;SDS_P1;SDS_P2;PMS_P1;PMS_P2;Temp;Humidity;BMP_temperature;BMP_pressure;BME280_temperature;BME280_humidity;BME280_pressure;Samples;Min_cycle;Max_cycle;Signal;HPM_P1;HPM_P2
2021/11/18 00:01:27;;;;;;;9.05;5.30;;;;;;;4.15;87.00;98493.56;5019602;28;20049;-54
2021/11/18 00:04:05;;;;;;;8.85;4.88;;;;;;;4.14;87.23;98491.91;5017059;28;20045;-55
2021/11/18 00:06:32;;;;;;;8.55;5.00;;;;;;;4.09;87.81;98486.28;5005432;28;20057;-54
2021/11/18 00:08:58;;;;;;;9.35;5.60;;;;;;;4.16;87.29;98487.19;5015821;28;20041;-52
2021/11/18 00:11:26;;;;;;;10.60;5.88;;;;;;;4.10;87.71;98485.25;5020631;28;20041;-54
2021/11/18 00:13:54;;;;;;;8.45;5.50;;;;;;;4.08;88.04;98487.28;5024380;28;20100;-54
2021/11/18 00:16:22;;;;;;;9.23;5.72;;;;;;;4.11;87.51;98485.06;5027117;28;20072;-50
2021/11/18 00:18:49;;;;;;;11.50;5.68;;;;;;;4.08;87.89;98480.06;5023640;28;20696;-53
2021/11/18 00:21:23;;;;;;;9.13;5.60;;;;;;;4.06;88.11;98482.13;5028526;28;20042;-57
2021/11/18 00:23:52;;;;;;;9.25;6.43;;;;;;;4.09;87.71;98488.97;5021398;28;20069;-55
2021/11/18 00:26:20;;;;;;;10.63;6.13;;;;;;;4.16;87.61;98489.88;5011928;28;20049;-57
2021/11/18 00:28:47;;;;;;;9.93;5.70;;;;;;;4.17;88.19;98483.53;5017943;28;20049;-57
2021/11/18 00:31:17;;;;;;;8.82;5.53;;;;;;;4.14;88.43;98487.41;5010868;28;20038;-55
2021/11/18 00:33:44;;;;;;;8.82;5.28;;;;;;;4.29;87.25;98487.41;5020912;28;20046;-51
2021/11/18 00:36:13;;;;;;;9.20;4.80;;;;;;;4.45;85.82;98479.38;5009537;28;20128;-56
2021/11/18 00:38:40;;;;;;;10.43;5.47;;;;;;;4.33;86.90;98474.47;5013747;28;20049;-54
2021/11/18 00:41:06;;;;;;;9.10;5.22;;;;;;;4.39;86.47;98497.84;5024806;28;20053;-53
2021/11/18 00:43:33;;;;;;;7.25;4.55;;;;;;;4.47;86.04;98491.59;5023426;28;20524;-53
2021/11/18 00:46:00;;;;;;;8.73;4.78;;;;;;;4.36;86.58;98495.56;5014930;28;20058;-54
2021/11/18 00:48:28;;;;;;;7.80;5.15;;;;;;;4.27;87.29;98491.28;5017851;28;20064;-53
2021/11/18 00:51:05;;;;;;;8.20;5.30;;;;;;;4.14;87.60;98490.09;5026394;28;20049;-53
2021/11/18 00:53:38;;;;;;;9.68;5.60;;;;;;;4.09;88.15;98494.31;5027525;28;20045;-54
2021/11/18 00:56:05;;;;;;;8.40;5.13;;;;;;;4.11;88.29;98484.22;5027710;28;20053;-54
2021/11/18 00:58:32;;;;;;;8.15;5.40;;;;;;;4.11;88.73;98482.41;5023118;28;20050;-50
2021/11/18 01:00:58;;;;;;;8.50;5.40;;;;;;;4.12;88.91;98486.72;5024667;28;20045;-50
2021/11/18 01:03:27;;;;;;;10.18;5.95;;;;;;;4.14;88.42;98487.41;5024862;28;20061;-52
2021/11/18 01:05:54;;;;;;;8.48;5.53;;;;;;;4.14;88.68;98486.56;5016723;28;20067;-56
2021/11/18 01:08:22;;;;;;;9.07;5.65;;;;;;;4.13;88.21;98485.72;5028689;28;20065;-57
2021/11/18 01:11:02;;;;;;;10.07;6.25;;;;;;;4.07;88.83;98480.25;5011525;28;20137;-57
2021/11/18 01:13:30;;;;;;;14.68;6.18;;;;;;;4.06;88.70;98490.16;5007445;28;20053;-57
2021/11/18 01:15:58;;;;;;;10.38;6.63;;;;;;;4.13;88.91;98483.03;5021985;28;20100;-57
2021/11/18 01:18:25;;;;;;;10.85;6.80;;;;;;;4.03;88.73;98477.94;5013868;28;20053;-55
2021/11/18 01:20:56;;;;;;;10.75;6.57;;;;;;;4.08;88.99;98480.06;5022213;28;20494;-55
2021/11/18 01:23:30;;;;;;;9.82;5.85;;;;;;;4.14;88.60;98487.41;5014454;28;20051;-55
2021/11/18 01:25:57;;;;;;;11.65;6.97;;;;;;;4.17;88.05;98488.88;5026695;28;20045;-56
2021/11/18 01:28:25;;;;;;;9.60;6.75;;;;;;;4.23;88.49;98495.34;5020662;28;20069;-53
2021/11/18 01:30:53;;;;;;;11.13;6.88;;;;;;;4.34;88.61;98499.41;5026414;28;20056;-55
2021/11/18 01:33:24;;;;;;;9.30;5.87;;;;;;;4.38;87.93;98500.72;5026975;28;20050;-57
2021/11/18 01:35:52;;;;;;;9.40;5.95;;;;;;;4.43;86.79;98511.75;5026038;28;20044;-55
2021/11/18 01:38:20;;;;;;;9.15;5.80;;;;;;;4.49;86.57;98513.69;5025772;28;20045;-55
2021/11/18 01:40:53;;;;;;;8.63;5.63;;;;;;;4.55;86.06;98520.16;5012842;28;20060;-55
2021/11/18 01:43:42;;;;;;;9.13;6.10;;;;;;;4.49;86.65;98515.53;5005814;28;20046;-51
2021/11/18 01:46:17;;;;;;;7.78;5.10;;;;;;;4.37;87.97;98520.50;5007877;28;20069;-53
2021/11/18 01:48:51;;;;;;;8.88;5.38;;;;;;;4.42;88.32;98524.31;5006555;28;20108;-56
2021/11/18 01:51:23;;;;;;;10.02;5.68;;;;;;;4.47;86.88;98518.41;5012771;28;20046;-55
2021/11/18 01:53:50;;;;;;;8.65;5.40;;;;;;;4.58;86.44;98513.59;5025414;28;20740;-53
2021/11/18 01:56:23;;;;;;;9.15;5.53;;;;;;;4.56;87.68;98508.41;5009796;28;20049;-57
2021/11/18 01:58:56;;;;;;;9.93;6.00;;;;;;;4.57;87.54;98506.56;5006034;28;20096;-57
2021/11/18 02:01:44;;;;;;;9.63;5.32;;;;;;;4.52;88.72;98517.84;5011227;28;20044;-57
2021/11/18 02:04:26;;;;;;;8.50;5.28;;;;;;;4.53;87.17;98512.28;5025535;28;20443;-57
2021/11/18 02:07:08;;;;;;;9.75;5.80;;;;;;;4.59;87.95;98520.63;5022876;28;20042;-57
2021/11/18 02:09:44;;;;;;;9.38;5.40;;;;;;;4.53;86.88;98522.19;5023996;28;20524;-57
2021/11/18 02:12:23;;;;;;;10.68;6.60;;;;;;;4.30;88.20;98525.78;5035247;28;20041;-56
2021/11/18 02:14:52;;;;;;;10.45;6.78;;;;;;;4.28;88.23;98525.94;5019076;28;20124;-57
2021/11/18 02:17:23;;;;;;;9.40;5.95;;;;;;;4.31;88.54;98518.56;5026644;28;20051;-57
2021/11/18 02:20:03;;;;;;;10.25;6.10;;;;;;;4.14;89.36;98519.56;5025599;28;20040;-57
2021/11/18 02:22:31;;;;;;;10.60;6.10;;;;;;;4.19;89.73;98513.66;5020476;28;20133;-57
2021/11/18 02:25:04;;;;;;;10.48;6.47;;;;;;;4.20;89.49;98520.66;5018116;28;20555;-57
2021/11/18 02:27:31;;;;;;;12.70;6.20;;;;;;;4.24;89.47;98524.66;5012690;28;20803;-57
2021/11/18 02:29:59;;;;;;;10.02;6.28;;;;;;;4.27;88.89;98526.97;5006512;28;20041;-54
2021/11/18 02:32:32;;;;;;;8.90;5.93;;;;;;;4.25;89.30;98534.38;5012252;28;20057;-52
2021/11/18 02:35:02;;;;;;;8.95;5.80;;;;;;;4.28;89.18;98547.41;5005135;28;20034;-56
2021/11/18 02:37:29;;;;;;;8.75;5.78;;;;;;;4.31;88.92;98545.38;5013311;28;20049;-55
2021/11/18 02:39:56;;;;;;;11.30;6.35;;;;;;;4.37;90.17;98541.97;5014891;28;20052;-54
2021/11/18 02:42:24;;;;;;;10.02;5.60;;;;;;;4.43;89.67;98550.09;5014700;28;20053;-54
2021/11/18 02:44:51;;;;;;;8.95;5.20;;;;;;;4.48;89.09;98546.03;5008921;28;20815;-56
2021/11/18 02:47:18;;;;;;;8.60;6.10;;;;;;;4.51;88.96;98548.38;5004577;28;20148;-55
2021/11/18 02:49:51;;;;;;;8.65;4.80;;;;;;;4.47;88.63;98545.22;5011144;28;20073;-57
2021/11/18 02:52:27;;;;;;;11.98;6.35;;;;;;;4.32;89.44;98544.38;5032153;28;20416;-57
2021/11/18 02:55:08;;;;;;;9.43;5.90;;;;;;;4.44;88.79;98550.94;5017927;28;20440;-56
2021/11/18 02:57:35;;;;;;;9.18;5.45;;;;;;;4.60;87.22;98547.25;5004139;28;20050;-57
2021/11/18 03:00:09;;;;;;;8.43;5.03;;;;;;;4.65;87.39;98550.22;5007639;28;20124;-57
2021/11/18 03:02:36;;;;;;;9.27;5.32;;;;;;;4.65;86.96;98552.91;5014124;28;20085;-57
2021/11/18 03:05:05;;;;;;;8.98;5.38;;;;;;;4.69;86.34;98561.44;5023189;28;20042;-57
2021/11/18 03:07:33;;;;;;;8.93;4.90;;;;;;;4.68;86.46;98555.22;5023507;28;20049;-57
2021/11/18 03:10:00;;;;;;;8.13;4.60;;;;;;;4.69;86.77;98551.50;5016934;28;20046;-57
2021/11/18 03:12:26;;;;;;;10.77;6.00;;;;;;;4.76;87.73;98545.41;5024492;28;20060;-55
2021/11/18 03:14:53;;;;;;;8.95;5.95;;;;;;;4.75;86.68;98549.94;5021988;28;20045;-57
2021/11/18 03:17:22;;;;;;;9.20;5.60;;;;;;;4.65;87.88;98547.53;5004576;28;20069;-58
2021/11/18 03:20:16;;;;;;;9.00;5.13;;;;;;;4.59;88.04;98550.13;5005935;28;20398;-57
2021/11/18 03:22:44;;;;;;;8.13;4.72;;;;;;;4.58;88.07;98540.41;5024607;28;20053;-57
2021/11/18 03:25:13;;;;;;;10.85;5.10;;;;;;;4.60;88.13;98541.88;5023397;28;20041;-56
2021/11/18 03:27:40;;;;;;;7.28;5.07;;;;;;;4.64;88.46;98555.78;5004835;28;20058;-57
2021/11/18 03:30:10;;;;;;;10.27;5.97;;;;;;;4.62;88.20;98557.81;5016013;28;20095;-57
2021/11/18 03:32:40;;;;;;;10.35;5.50;;;;;;;4.58;88.54;98556.50;5024103;28;20539;-55
2021/11/18 03:35:08;;;;;;;9.65;5.72;;;;;;;4.42;89.09;98552.97;5014021;28;20045;-57
2021/11/18 03:37:35;;;;;;;9.65;5.40;;;;;;;4.43;89.53;98560.00;5004579;28;20050;-55
2021/11/18 03:40:03;;;;;;;9.02;5.88;;;;;;;4.50;89.57;98552.88;5005256;28;20128;-56
2021/11/18 03:42:31;;;;;;;11.20;5.57;;;;;;;4.59;89.56;98545.59;5004769;28;20049;-57
2021/11/18 03:44:58;;;;;;;8.95;5.65;;;;;;;4.48;88.76;98544.22;5006379;28;20034;-57
2021/11/18 03:47:24;;;;;;;9.18;5.55;;;;;;;4.46;89.03;98542.72;5022234;28;20049;-56
2021/11/18 03:49:51;;;;;;;10.27;5.63;;;;;;;4.52;88.96;98552.72;5016998;28;20046;-57
2021/11/18 03:52:18;;;;;;;8.30;5.18;;;;;;;4.58;89.09;98553.81;5029788;28;20045;-54
2021/11/18 03:54:46;;;;;;;9.45;5.45;;;;;;;4.54;88.57;98548.81;5023384;28;20052;-54
2021/11/18 03:57:16;;;;;;;9.10;4.80;;;;;;;4.64;88.66;98561.16;5027720;28;20072;-56
2021/11/18 03:59:51;;;;;;;8.95;5.53;;;;;;;4.75;88.28;98570.59;5040264;28;20115;-57
2021/11/18 04:02:20;;;;;;;9.38;5.68;;;;;;;4.84;87.57;98579.38;5021997;28;20037;-57
2021/11/18 04:04:52;;;;;;;8.73;5.13;;;;;;;4.89;87.59;98587.69;5025900;28;20402;-57
2021/11/18 04:07:19;;;;;;;9.48;5.35;;;;;;;4.90;88.07;98590.19;5023381;28;20518;-57
2021/11/18 04:09:50;;;;;;;10.88;4.95;;;;;;;4.95;87.93;98590.47;5026679;28;20704;-55
2021/11/18 04:12:18;;;;;;;12.00;4.95;;;;;;;4.87;88.53;98582.50;5030375;28;20465;-57
2021/11/18 04:14:46;;;;;;;8.68;5.15;;;;;;;4.90;88.15;98587.50;5023052;28;20092;-57
2021/11/18 04:17:14;;;;;;;9.90;5.47;;;;;;;4.94;88.00;98593.38;5027024;28;20073;-57
2021/11/18 04:19:40;;;;;;;8.57;5.22;;;;;;;4.79;88.39;98588.81;5028796;28;20074;-57
2021/11/18 04:22:07;;;;;;;10.82;6.50;;;;;;;4.78;88.83;98584.47;5031919;28;20052;-57
2021/11/18 04:24:38;;;;;;;10.35;5.75;;;;;;;4.90;88.45;98578.66;5025020;28;20092;-57
2021/11/18 04:27:05;;;;;;;12.35;6.18;;;;;;;4.86;88.32;98578.16;5025481;28;20045;-57
2021/11/18 04:29:32;;;;;;;9.60;5.20;;;;;;;4.94;88.68;98590.69;5026821;28;20046;-57
2021/11/18 04:32:06;;;;;;;10.18;5.35;;;;;;;4.90;88.09;98586.69;5017421;28;20053;-57
2021/11/18 04:34:34;;;;;;;10.05;6.10;;;;;;;4.96;88.38;98596.69;5026697;28;20069;-57
2021/11/18 04:37:01;;;;;;;12.20;6.47;;;;;;;4.80;88.35;98598.53;5026240;28;20037;-57
2021/11/18 04:39:28;;;;;;;12.27;6.80;;;;;;;4.88;88.50;98599.47;5024547;28;20033;-57
2021/11/18 04:41:55;;;;;;;12.40;6.53;;;;;;;4.91;87.86;98609.84;5030982;28;20052;-57
2021/11/18 04:44:22;;;;;;;10.57;6.25;;;;;;;4.92;88.10;98606.97;5029593;28;20072;-57
2021/11/18 04:46:54;;;;;;;12.50;7.03;;;;;;;4.94;88.13;98609.47;5029958;28;20076;-55
2021/11/18 04:49:22;;;;;;;13.32;7.30;;;;;;;5.03;87.54;98618.25;5026128;28;20041;-54
2021/11/18 04:51:49;;;;;;;12.07;7.45;;;;;;;5.06;87.40;98610.66;5043447;28;20042;-56
2021/11/18 04:54:15;;;;;;;14.02;7.18;;;;;;;5.04;88.10;98615.38;5031351;28;20041;-53
2021/11/18 04:56:42;;;;;;;12.95;6.38;;;;;;;5.11;87.40;98617.31;5022966;28;20482;-54
2021/11/18 04:59:09;;;;;;;10.45;6.22;;;;;;;5.11;87.28;98620.00;5031894;28;20068;-56
2021/11/18 05:01:36;;;;;;;13.80;7.05;;;;;;;5.00;87.46;98623.97;5013421;28;20060;-55
2021/11/18 05:04:05;;;;;;;11.95;6.80;;;;;;;4.90;88.19;98622.41;5024894;28;20140;-53
2021/11/18 05:06:33;;;;;;;12.52;6.97;;;;;;;4.76;88.26;98624.06;5016059;28;20048;-50
2021/11/18 05:09:01;;;;;;;14.35;7.38;;;;;;;4.90;89.24;98625.09;5042665;28;20045;-55
2021/11/18 05:11:28;;;;;;;12.00;7.43;;;;;;;4.90;88.27;98624.28;5027100;28;20507;-54
2021/11/18 05:13:56;;;;;;;14.30;7.57;;;;;;;4.92;88.16;98620.38;5008513;28;20132;-53
2021/11/18 05:16:24;;;;;;;16.52;7.75;;;;;;;4.87;87.96;98620.09;5014419;28;20034;-56
2021/11/18 05:18:51;;;;;;;13.48;7.00;;;;;;;4.87;88.35;98624.63;5015936;28;20045;-57
2021/11/18 05:21:22;;;;;;;13.50;7.35;;;;;;;4.74;88.41;98614.53;5026446;28;20427;-57
2021/11/18 05:23:49;;;;;;;18.50;8.65;;;;;;;4.76;88.69;98615.19;5026757;28;20046;-57
2021/11/18 05:26:21;;;;;;;18.13;9.48;;;;;;;4.64;89.01;98614.81;5017484;28;20042;-57
2021/11/18 05:28:52;;;;;;;13.27;6.97;;;;;;;4.68;88.38;98616.94;5006808;28;20495;-57
2021/11/18 05:31:21;;;;;;;13.25;7.82;;;;;;;4.61;89.21;98620.53;5016819;28;20056;-57
2021/11/18 05:34:01;;;;;;;14.25;8.70;;;;;;;4.57;89.12;98624.59;5027078;28;20049;-57
2021/11/18 05:36:33;;;;;;;13.00;7.15;;;;;;;4.59;88.81;98630.59;5025255;28;20499;-57
2021/11/18 05:39:02;;;;;;;11.73;7.40;;;;;;;4.51;89.05;98635.03;5025718;28;20049;-56
2021/11/18 05:41:33;;;;;;;14.70;7.78;;;;;;;4.56;89.92;98631.78;5042925;28;20527;-57
2021/11/18 05:44:04;;;;;;;14.27;8.07;;;;;;;4.50;89.06;98629.84;5025419;28;20053;-57
2021/11/18 05:46:33;;;;;;;15.90;7.80;;;;;;;4.62;88.61;98635.59;5022402;28;20042;-55
2021/11/18 05:49:04;;;;;;;17.63;11.98;;;;;;;4.65;88.99;98632.56;5013281;28;20128;-57
2021/11/18 05:51:31;;;;;;;13.73;7.97;;;;;;;4.74;89.10;98636.84;5023148;28;20086;-54
2021/11/18 05:53:58;;;;;;;13.02;6.90;;;;;;;4.80;88.62;98638.78;5006650;28;20046;-57
2021/11/18 05:56:25;;;;;;;12.82;7.40;;;;;;;4.82;88.01;98639.44;5024638;28;20037;-57
2021/11/18 05:58:53;;;;;;;13.57;7.85;;;;;;;4.86;87.40;98650.63;5026416;28;20045;-54
2021/11/18 06:01:26;;;;;;;11.07;6.68;;;;;;;4.90;87.82;98643.88;5009503;28;20575;-55
2021/11/18 06:03:54;;;;;;;12.25;6.47;;;;;;;4.87;86.92;98649.59;5024323;28;20052;-54
2021/11/18 06:06:36;;;;;;;13.23;6.85;;;;;;;4.88;86.79;98643.25;5015284;28;20078;-56
2021/11/18 06:09:03;;;;;;;13.60;6.78;;;;;;;4.74;87.90;98642.19;5039259;28;20440;-54
2021/11/18 06:11:34;;;;;;;12.88;7.20;;;;;;;4.75;88.25;98641.19;5023389;28;20053;-53
2021/11/18 06:14:04;;;;;;;12.95;7.60;;;;;;;4.78;87.63;98648.88;5023108;28;20052;-55
2021/11/18 06:16:32;;;;;;;14.93;8.32;;;;;;;4.88;87.92;98648.63;5023895;28;20050;-54
2021/11/18 06:19:01;;;;;;;12.73;7.65;;;;;;;4.90;87.06;98645.75;5020504;28;20145;-57
2021/11/18 06:21:35;;;;;;;11.80;6.97;;;;;;;4.94;87.21;98647.88;5018741;28;20045;-57
2021/11/18 06:24:03;;;;;;;14.02;7.38;;;;;;;5.00;87.77;98651.66;5014756;28;20096;-57
2021/11/18 06:26:30;;;;;;;16.35;8.30;;;;;;;5.01;87.70;98658.69;5032802;28;20044;-57
2021/11/18 06:28:58;;;;;;;12.07;6.97;;;;;;;5.05;86.98;98654.63;5010200;28;20057;-57
2021/11/18 06:31:25;;;;;;;12.23;6.97;;;;;;;5.04;86.30;98662.88;5021764;28;20588;-57
2021/11/18 06:33:52;;;;;;;11.85;6.85;;;;;;;5.09;85.96;98665.84;5013806;28;20049;-57
2021/11/18 06:36:20;;;;;;;11.38;6.70;;;;;;;5.15;85.73;98672.31;5017855;28;20520;-55
2021/11/18 06:38:50;;;;;;;11.80;7.05;;;;;;;5.07;86.08;98660.66;5025223;28;20077;-56
2021/11/18 06:41:20;;;;;;;11.45;6.78;;;;;;;5.09;85.66;98660.47;5021538;28;20119;-56
2021/11/18 06:43:48;;;;;;;10.85;6.35;;;;;;;5.07;85.58;98668.72;5022249;28;20673;-56
2021/11/18 06:46:16;;;;;;;9.40;6.07;;;;;;;5.12;84.84;98670.00;5022936;28;20562;-57
2021/11/18 06:48:43;;;;;;;10.23;5.85;;;;;;;5.16;85.35;98672.13;5021435;28;20065;-57
2021/11/18 06:51:19;;;;;;;10.18;6.68;;;;;;;5.04;85.68;98679.81;5015528;28;20050;-57
2021/11/18 06:53:49;;;;;;;9.88;6.10;;;;;;;5.03;85.75;98680.84;5021981;28;20091;-57
2021/11/18 06:56:23;;;;;;;9.15;5.65;;;;;;;5.01;85.96;98680.16;5017726;28;20052;-57
2021/11/18 06:58:50;;;;;;;10.85;5.68;;;;;;;5.00;86.20;98677.66;5021576;28;20508;-55
2021/11/18 07:01:18;;;;;;;9.77;5.30;;;;;;;4.93;86.47;98691.00;5023151;28;20144;-57
2021/11/18 07:03:45;;;;;;;9.85;5.68;;;;;;;5.01;86.53;98685.53;5019731;28;20102;-56
2021/11/18 07:06:16;;;;;;;8.70;5.22;;;;;;;5.03;86.33;98688.88;5013775;28;20520;-57
2021/11/18 07:08:45;;;;;;;11.00;6.38;;;;;;;5.11;86.15;98697.84;5021352;28;20057;-56
2021/11/18 07:11:13;;;;;;;9.75;5.72;;;;;;;5.14;85.91;98701.03;5037695;28;20045;-55
2021/11/18 07:13:42;;;;;;;11.10;6.47;;;;;;;5.21;85.63;98712.69;5014371;28;20045;-54
2021/11/18 07:16:13;;;;;;;10.90;6.00;;;;;;;5.06;85.79;98706.47;5021743;28;20046;-53
2021/11/18 07:18:42;;;;;;;11.23;6.03;;;;;;;5.08;86.18;98707.97;5007224;28;20045;-57
2021/11/18 07:21:09;;;;;;;12.25;6.82;;;;;;;5.01;86.89;98706.19;5011280;28;20045;-53
2021/11/18 07:23:37;;;;;;;10.07;5.65;;;;;;;5.12;86.90;98718.34;5021324;28;20045;-57
2021/11/18 07:26:07;;;;;;;10.98;5.72;;;;;;;5.14;86.58;98718.97;5017930;28;20140;-59
2021/11/18 07:28:36;;;;;;;9.52;5.55;;;;;;;5.06;86.38;98725.28;5020391;28;20051;-58
2021/11/18 07:31:04;;;;;;;8.27;5.05;;;;;;;5.13;86.27;98736.13;5021629;28;20056;-58
2021/11/18 07:33:39;;;;;;;10.45;5.50;;;;;;;5.27;86.69;98743.34;5022546;28;20135;-57
2021/11/18 07:36:07;;;;;;;12.90;5.72;;;;;;;5.30;85.77;98736.78;5017625;28;20049;-55
2021/11/18 07:38:35;;;;;;;8.88;5.13;;;;;;;5.36;85.53;98744.09;5023182;28;20078;-57
2021/11/18 07:41:05;;;;;;;9.88;6.05;;;;;;;5.42;84.55;98747.91;5009182;28;20034;-57
2021/11/18 07:43:35;;;;;;;11.60;5.05;;;;;;;5.51;84.48;98757.53;5016223;28;20049;-56
2021/11/18 07:46:40;;;;;;;9.68;5.90;;;;;;;5.51;84.58;98751.31;5022582;28;20045;-57
2021/11/18 07:49:11;;;;;;;9.32;5.30;;;;;;;5.50;84.27;98749.66;5008868;28;20052;-51
2021/11/18 07:51:39;;;;;;;9.63;5.43;;;;;;;5.60;83.80;98751.06;5012707;28;20050;-53
2021/11/18 07:54:12;;;;;;;8.35;5.22;;;;;;;5.58;83.92;98757.63;5021836;28;20057;-53
2021/11/18 07:56:40;;;;;;;10.40;5.85;;;;;;;5.52;85.05;98761.91;5018552;28;20041;-56
2021/11/18 07:59:08;;;;;;;8.80;5.68;;;;;;;5.58;84.87;98757.63;5026245;28;20049;-55
2021/11/18 08:01:39;;;;;;;10.18;5.72;;;;;;;5.65;84.94;98749.66;5019691;28;20052;-55
2021/11/18 08:04:09;;;;;;;10.07;6.10;;;;;;;5.77;84.49;98745.50;5023374;28;20045;-56
2021/11/18 08:06:40;;;;;;;11.20;6.22;;;;;;;5.75;83.71;98750.22;5022918;28;20045;-57
2021/11/18 08:09:10;;;;;;;11.18;6.38;;;;;;;5.79;85.07;98748.81;5023531;28;20041;-57
2021/11/18 08:11:52;;;;;;;11.07;6.47;;;;;;;5.60;84.84;98745.69;5015780;28;20096;-57
2021/11/18 08:14:20;;;;;;;9.38;5.57;;;;;;;5.53;85.03;98744.75;5024273;28;20049;-57
2021/11/18 08:16:51;;;;;;;12.23;6.07;;;;;;;5.62;84.99;98741.97;5024894;28;20424;-56
2021/11/18 08:19:18;;;;;;;8.88;5.55;;;;;;;5.62;85.28;98745.50;5040431;28;20571;-56
2021/11/18 08:21:48;;;;;;;10.70;5.65;;;;;;;5.69;84.91;98751.81;5011725;28;20465;-57
2021/11/18 08:24:21;;;;;;;10.73;5.70;;;;;;;5.79;83.37;98748.81;5019377;28;20152;-55
2021/11/18 08:26:49;;;;;;;11.55;6.80;;;;;;;5.91;83.66;98751.88;5009411;28;20077;-54
2021/11/18 08:29:22;;;;;;;11.85;6.72;;;;;;;5.97;83.46;98748.44;5004670;28;20065;-56
2021/11/18 08:31:51;;;;;;;11.38;6.60;;;;;;;6.04;82.72;98753.09;5017387;28;20053;-54
2021/11/18 08:34:31;;;;;;;10.95;6.45;;;;;;;6.17;82.75;98764.00;5023992;28;20042;-52
2021/11/18 08:37:04;;;;;;;10.07;5.72;;;;;;;6.21;81.97;98759.94;5017824;28;20391;-55
2021/11/18 08:39:35;;;;;;;11.23;6.25;;;;;;;6.29;81.62;98761.66;5024489;28;20049;-59
2021/11/18 08:42:05;;;;;;;10.48;5.80;;;;;;;6.41;81.15;98764.69;5037052;28;20045;-56
2021/11/18 08:44:34;;;;;;;11.50;6.60;;;;;;;6.44;80.64;98761.63;5014637;28;20463;-56
2021/11/18 08:47:02;;;;;;;10.93;6.78;;;;;;;6.45;82.21;98765.16;5027431;28;20413;-55
2021/11/18 08:49:31;;;;;;;11.07;6.00;;;;;;;6.45;81.12;98770.53;5025708;28;20099;-57
2021/11/18 08:52:06;;;;;;;10.52;6.15;;;;;;;6.48;80.19;98768.28;5008992;28;20045;-58
2021/11/18 08:54:38;;;;;;;9.82;6.40;;;;;;;6.48;81.65;98776.34;5015136;28;20046;-57
2021/11/18 08:57:07;;;;;;;10.90;6.10;;;;;;;6.53;79.90;98772.25;5017627;28;20042;-57
2021/11/18 08:59:53;;;;;;;13.75;6.20;;;;;;;6.49;80.58;98774.50;5028729;28;20524;-57
2021/11/18 09:02:27;;;;;;;10.52;5.97;;;;;;;6.56;80.82;98772.69;5032929;28;20055;-55
2021/11/18 09:04:55;;;;;;;10.20;6.35;;;;;;;6.60;80.31;98773.16;5023916;28;20046;-54
2021/11/18 09:07:23;;;;;;;11.82;6.70;;;;;;;6.50;80.85;98776.16;5023780;28;20034;-55
2021/11/18 09:09:49;;;;;;;13.75;6.43;;;;;;;6.59;80.14;98766.09;5028816;28;20037;-60
2021/11/18 09:12:16;;;;;;;11.73;6.18;;;;;;;6.60;80.18;98770.47;5026745;28;20845;-59
2021/11/18 09:14:44;;;;;;;10.50;6.95;;;;;;;6.76;79.79;98772.06;5022613;28;20593;-56
2021/11/18 09:17:13;;;;;;;10.73;6.07;;;;;;;6.88;78.55;98775.06;5007207;28;20061;-57
2021/11/18 09:19:57;;;;;;;10.50;5.80;;;;;;;6.94;78.53;98777.00;5022210;28;20045;-57
2021/11/18 09:22:24;;;;;;;10.07;6.45;;;;;;;6.92;78.44;98783.63;5020129;28;20069;-52
2021/11/18 09:24:55;;;;;;;10.23;6.93;;;;;;;6.79;79.27;98784.31;5011726;28;20044;-55
2021/11/18 09:27:37;;;;;;;9.48;5.80;;;;;;;6.88;79.22;98788.53;5027033;28;20535;-56
2021/11/18 09:30:11;;;;;;;11.55;6.32;;;;;;;6.88;79.26;98780.47;5019381;28;20042;-56
2021/11/18 09:32:48;;;;;;;11.50;7.07;;;;;;;6.94;79.24;98784.25;5008498;28;20542;-54
2021/11/18 09:35:24;;;;;;;11.50;6.38;;;;;;;7.13;79.59;98778.22;5015578;28;20092;-58
2021/11/18 09:37:52;;;;;;;9.20;5.93;;;;;;;7.22;78.54;98784.28;5025250;28;20040;-57
2021/11/18 09:40:25;;;;;;;12.13;6.25;;;;;;;7.05;79.04;98785.59;5026198;28;20037;-57
2021/11/18 09:43:27;;;;;;;10.52;6.10;;;;;;;6.78;79.78;98788.84;5018481;28;20050;-57
2021/11/18 09:46:24;;;;;;;11.50;6.88;;;;;;;6.93;80.09;98791.47;5018067;28;20045;-55
2021/11/18 09:49:07;;;;;;;10.27;5.82;;;;;;;6.97;80.11;98784.69;5005616;28;20540;-57
2021/11/18 09:51:48;;;;;;;10.43;6.28;;;;;;;7.02;80.02;98781.41;5036673;28;20065;-58
2021/11/18 09:54:42;;;;;;;11.52;7.32;;;;;;;7.09;80.78;98776.09;5026524;28;20048;-58
2021/11/18 09:57:19;;;;;;;11.23;6.55;;;;;;;7.25;78.87;98783.03;5009379;28;20707;-58
2021/11/18 10:00:08;;;;;;;12.73;8.90;;;;;;;7.38;78.69;98788.53;5007531;28;20042;-54
2021/11/18 10:02:55;;;;;;;12.20;7.10;;;;;;;7.17;79.01;98778.66;5019766;28;20049;-57
2021/11/18 10:05:27;;;;;;;27.73;14.77;;;;;;;7.16;79.69;98780.50;5018126;28;20453;-55
2021/11/18 10:08:00;;;;;;;;;;;;;;;7.12;79.66;98783.78;5025021;28;20037;-57
2021/11/18 10:10:34;;;;;;;13.38;6.75;;;;;;;7.23;79.69;98785.13;5017231;28;19951;-55
2021/11/18 10:13:17;;;;;;;12.02;6.57;;;;;;;7.25;79.72;98797.34;5006608;28;20104;-57
2021/11/18 10:15:49;;;;;;;12.90;6.32;;;;;;;7.57;77.42;98791.56;5015829;28;20047;-54
2021/11/18 10:18:30;;;;;;;12.75;7.07;;;;;;;7.58;78.35;98800.47;5020968;28;20044;-55
2021/11/18 10:21:05;;;;;;;12.00;6.32;;;;;;;7.73;77.93;98793.13;5020972;28;20519;-55
2021/11/18 10:23:32;;;;;;;9.73;5.90;;;;;;;8.04;76.44;98785.63;5022105;28;20108;-56
2021/11/18 10:26:04;;;;;;;10.90;6.22;;;;;;;8.26;74.51;98786.31;5010270;28;20075;-55
2021/11/18 10:28:37;;;;;;;10.80;5.95;;;;;;;8.18;74.12;98781.94;5022393;28;20076;-58
2021/11/18 10:31:08;;;;;;;24.90;11.45;;;;;;;7.49;77.04;98787.16;5017425;28;20451;-58
2021/11/18 10:33:47;;;;;;;22.02;12.35;;;;;;;7.42;77.88;98773.63;5021471;28;20049;-58
2021/11/18 10:36:41;;;;;;;13.55;7.05;;;;;;;7.62;78.90;98777.50;5017167;28;20413;-57
2021/11/18 10:39:26;;;;;;;13.27;7.80;;;;;;;7.07;79.99;98770.06;5018340;28;20125;-58
2021/11/18 10:41:59;;;;;;;14.43;7.47;;;;;;;7.21;79.20;98769.16;5014198;28;20136;-56
2021/11/18 10:44:42;;;;;;;12.57;5.97;;;;;;;7.55;77.32;98769.38;5024063;28;20067;-57
2021/11/18 10:47:14;;;;;;;10.02;6.65;;;;;;;7.84;76.39;98759.38;5018311;28;20064;-57
2021/11/18 10:49:54;;;;;;;11.85;6.18;;;;;;;8.03;75.41;98759.66;5021067;28;20107;-57
2021/11/18 10:52:36;;;;;;;10.55;5.55;;;;;;;8.26;74.97;98753.94;5018306;28;20041;-57
2021/11/18 10:55:19;;;;;;;10.52;5.88;;;;;;;8.42;74.32;98752.75;5023562;28;20041;-58
2021/11/18 10:58:01;;;;;;;13.70;7.45;;;;;;;8.36;75.40;98741.94;5022074;28;20528;-58
2021/11/18 11:00:37;;;;;;;13.68;6.78;;;;;;;8.16;76.25;98743.53;5017983;28;20045;-56
2021/11/18 11:03:35;;;;;;;13.88;7.35;;;;;;;8.17;75.24;98745.19;5020016;28;20050;-57
2021/11/18 11:06:19;;;;;;;14.18;7.90;;;;;;;8.45;75.46;98748.81;5021118;28;20053;-54
2021/11/18 11:09:19;;;;;;;17.17;7.03;;;;;;;8.01;75.60;98750.94;5023319;28;20045;-57
2021/11/18 11:12:02;;;;;;;12.32;6.95;;;;;;;7.75;76.76;98742.53;5024011;28;20567;-57
2021/11/18 11:14:40;;;;;;;11.73;6.95;;;;;;;7.73;77.85;98746.44;5023157;28;20198;-55
2021/11/18 11:17:32;;;;;;;11.48;6.10;;;;;;;7.83;76.65;98749.63;5020343;28;20095;-53
2021/11/18 11:20:21;;;;;;;12.70;6.57;;;;;;;7.94;75.21;98745.53;5020565;28;20048;-57
2021/11/18 11:23:24;;;;;;;14.63;7.40;;;;;;;7.66;76.94;98752.66;5011143;28;20049;-57
2021/11/18 11:25:50;;;;;;;11.98;6.57;;;;;;;7.68;77.44;98744.38;5017587;28;20065;-56
2021/11/18 11:28:29;;;;;;;10.05;6.03;;;;;;;7.66;78.12;98749.94;5023063;28;20103;-58
2021/11/18 11:31:38;;;;;;;9.48;5.78;;;;;;;7.55;77.74;98754.03;5021699;28;20077;-57
2021/11/18 11:34:26;;;;;;;9.82;5.90;;;;;;;7.42;78.82;98735.09;5017515;28;20063;-57
2021/11/18 11:37:02;;;;;;;11.88;5.70;;;;;;;7.64;77.36;98733.16;5023263;28;20056;-57
2021/11/18 11:39:36;;;;;;;8.52;5.30;;;;;;;7.80;77.51;98728.44;5015420;28;20057;-57
2021/11/18 11:42:24;;;;;;;12.27;6.85;;;;;;;7.70;77.33;98725.28;5014000;28;20045;-57
2021/11/18 11:45:10;;;;;;;11.02;6.40;;;;;;;7.62;76.66;98727.13;5010920;28;20056;-57
2021/11/18 11:47:49;;;;;;;10.60;6.10;;;;;;;7.79;76.61;98734.88;5020148;28;20052;-58
2021/11/18 11:50:32;;;;;;;11.52;6.20;;;;;;;7.84;76.34;98747.75;5021964;28;20424;-56
2021/11/18 11:53:10;;;;;;;10.50;6.85;;;;;;;7.81;76.28;98759.75;5009677;28;20049;-54
2021/11/18 11:56:22;;;;;;;10.35;5.70;;;;;;;7.77;76.76;98755.81;5024528;28;20406;-55
2021/11/18 11:58:54;;;;;;;9.77;5.47;;;;;;;7.51;77.12;98757.31;5022498;28;20049;-55
2021/11/18 12:01:36;;;;;;;8.63;5.18;;;;;;;7.40;76.38;98748.75;5019052;28;20079;-55